sensor_id;sensor_type;location;lat;lon;timestamp;temperature;humidity
10447;DHT22;5271;44.422;26.092;2023-03-14T00:02:25;14.70;99.90
10447;DHT22;5271;44.422;26.092;2023-03-14T00:04:54;14.70;99.90
10447;DHT22;5271;44.422;26.092;2023-03-14T00:07:21;14.80;99.90
10447;DHT22;5271;44.422;26.092;2023-03-14T00:09:51;14.70;99.70
10447;DHT22;5271;44.422;26.092;2023-03-14T00:12:18;14.80;99.10
10447;DHT22;5271;44.422;26.092;2023-03-14T00:14:45;14.70;98.70
10447;DHT22;5271;44.422;26.092;2023-03-14T00:17:12;14.80;98.10
10447;DHT22;5271;44.422;26.092;2023-03-14T00:19:39;14.70;97.50
10447;DHT22;5271;44.422;26.092;2023-03-14T00:22:06;14.70;97.40
10447;DHT22;5271;44.422;26.092;2023-03-14T00:24:33;14.70;97.50
10447;DHT22;5271;44.422;26.092;2023-03-14T00:27:01;14.70;97.70
10447;DHT22;5271;44.422;26.092;2023-03-14T00:29:28;14.60;97.50
10447;DHT22;5271;44.422;26.092;2023-03-14T00:31:55;14.60;97.60
10447;DHT22;5271;44.422;26.092;2023-03-14T00:34:21;14.50;97.80
10447;DHT22;5271;44.422;26.092;2023-03-14T00:36:48;14.50;97.60
10447;DHT22;5271;44.422;26.092;2023-03-14T00:39:15;14.60;97.30
10447;DHT22;5271;44.422;26.092;2023-03-14T00:41:42;14.50;96.80
10447;DHT22;5271;44.422;26.092;2023-03-14T00:44:10;14.50;96.90
10447;DHT22;5271;44.422;26.092;2023-03-14T00:46:37;14.50;96.40
10447;DHT22;5271;44.422;26.092;2023-03-14T00:49:04;14.60;95.60
10447;DHT22;5271;44.422;26.092;2023-03-14T00:51:31;14.60;95.20
10447;DHT22;5271;44.422;26.092;2023-03-14T00:53:59;14.70;94.80
10447;DHT22;5271;44.422;26.092;2023-03-14T00:56:26;14.60;94.80
10447;DHT22;5271;44.422;26.092;2023-03-14T00:58:54;14.60;94.70
10447;DHT22;5271;44.422;26.092;2023-03-14T01:01:23;14.60;94.50
10447;DHT22;5271;44.422;26.092;2023-03-14T01:03:51;14.50;94.40
10447;DHT22;5271;44.422;26.092;2023-03-14T01:06:19;14.40;94.40
10447;DHT22;5271;44.422;26.092;2023-03-14T01:08:47;14.40;94.20
10447;DHT22;5271;44.422;26.092;2023-03-14T01:11:17;14.40;94.20
10447;DHT22;5271;44.422;26.092;2023-03-14T01:13:44;14.30;94.00
10447;DHT22;5271;44.422;26.092;2023-03-14T01:16:12;14.40;93.90
10447;DHT22;5271;44.422;26.092;2023-03-14T01:18:42;14.30;93.80
10447;DHT22;5271;44.422;26.092;2023-03-14T01:21:11;14.30;93.70
10447;DHT22;5271;44.422;26.092;2023-03-14T01:23:38;14.30;93.70
10447;DHT22;5271;44.422;26.092;2023-03-14T01:26:08;14.30;94.00
10447;DHT22;5271;44.422;26.092;2023-03-14T01:28:35;14.30;94.10
10447;DHT22;5271;44.422;26.092;2023-03-14T01:31:03;14.30;94.20
10447;DHT22;5271;44.422;26.092;2023-03-14T01:33:30;14.30;94.80
10447;DHT22;5271;44.422;26.092;2023-03-14T01:35:58;14.20;95.40
10447;DHT22;5271;44.422;26.092;2023-03-14T01:38:27;14.10;95.60
10447;DHT22;5271;44.422;26.092;2023-03-14T01:40:54;14.20;96.10
10447;DHT22;5271;44.422;26.092;2023-03-14T01:43:21;14.30;96.50
10447;DHT22;5271;44.422;26.092;2023-03-14T01:49:15;14.20;97.40
10447;DHT22;5271;44.422;26.092;2023-03-14T01:51:49;14.10;98.20
10447;DHT22;5271;44.422;26.092;2023-03-14T01:54:20;14.10;98.20
10447;DHT22;5271;44.422;26.092;2023-03-14T01:56:52;14.10;98.80
10447;DHT22;5271;44.422;26.092;2023-03-14T01:59:20;14.10;98.90
10447;DHT22;5271;44.422;26.092;2023-03-14T02:01:47;14.00;99.10
10447;DHT22;5271;44.422;26.092;2023-03-14T02:04:18;13.90;99.40
10447;DHT22;5271;44.422;26.092;2023-03-14T02:06:51;13.90;99.50
10447;DHT22;5271;44.422;26.092;2023-03-14T02:09:19;13.90;99.80
10447;DHT22;5271;44.422;26.092;2023-03-14T02:11:47;13.80;99.70
10447;DHT22;5271;44.422;26.092;2023-03-14T02:14:21;13.80;99.90
10447;DHT22;5271;44.422;26.092;2023-03-14T02:16:52;13.80;99.90
10447;DHT22;5271;44.422;26.092;2023-03-14T02:19:25;13.80;99.90
10447;DHT22;5271;44.422;26.092;2023-03-14T02:21:59;13.70;99.90
10447;DHT22;5271;44.422;26.092;2023-03-14T02:24:35;13.80;99.90
10447;DHT22;5271;44.422;26.092;2023-03-14T02:27:11;13.80;99.90
10447;DHT22;5271;44.422;26.092;2023-03-14T02:29:44;13.80;99.90
10447;DHT22;5271;44.422;26.092;2023-03-14T02:32:13;13.80;99.90
10447;DHT22;5271;44.422;26.092;2023-03-14T02:34:43;13.80;99.90
10447;DHT22;5271;44.422;26.092;2023-03-14T02:37:13;13.80;99.40
10447;DHT22;5271;44.422;26.092;2023-03-14T02:39:43;13.80;99.10
10447;DHT22;5271;44.422;26.092;2023-03-14T02:42:13;13.80;99.00
10447;DHT22;5271;44.422;26.092;2023-03-14T02:44:48;13.80;99.00
10447;DHT22;5271;44.422;26.092;2023-03-14T02:47:17;13.80;99.00
10447;DHT22;5271;44.422;26.092;2023-03-14T02:49:46;13.80;99.20
10447;DHT22;5271;44.422;26.092;2023-03-14T02:52:13;13.70;99.10
10447;DHT22;5271;44.422;26.092;2023-03-14T02:54:39;13.70;99.00
10447;DHT22;5271;44.422;26.092;2023-03-14T02:57:06;13.60;99.10
10447;DHT22;5271;44.422;26.092;2023-03-14T02:59:35;13.60;99.10
10447;DHT22;5271;44.422;26.092;2023-03-14T03:02:01;13.60;99.10
10447;DHT22;5271;44.422;26.092;2023-03-14T03:04:28;13.70;99.00
10447;DHT22;5271;44.422;26.092;2023-03-14T03:06:55;13.60;98.50
10447;DHT22;5271;44.422;26.092;2023-03-14T03:09:22;13.60;98.30
10447;DHT22;5271;44.422;26.092;2023-03-14T03:11:49;13.60;98.50
10447;DHT22;5271;44.422;26.092;2023-03-14T03:14:15;13.60;98.10
10447;DHT22;5271;44.422;26.092;2023-03-14T03:16:44;13.60;97.90
10447;DHT22;5271;44.422;26.092;2023-03-14T03:19:10;13.60;97.80
10447;DHT22;5271;44.422;26.092;2023-03-14T03:21:39;13.60;97.90
10447;DHT22;5271;44.422;26.092;2023-03-14T03:24:05;13.50;97.90
10447;DHT22;5271;44.422;26.092;2023-03-14T03:26:33;13.50;97.80
10447;DHT22;5271;44.422;26.092;2023-03-14T03:29:00;13.50;98.00
10447;DHT22;5271;44.422;26.092;2023-03-14T03:31:27;13.50;97.80
10447;DHT22;5271;44.422;26.092;2023-03-14T03:33:56;13.50;97.90
10447;DHT22;5271;44.422;26.092;2023-03-14T03:36:25;13.50;97.60
10447;DHT22;5271;44.422;26.092;2023-03-14T03:38:52;13.40;97.50
10447;DHT22;5271;44.422;26.092;2023-03-14T03:41:19;13.30;97.50
10447;DHT22;5271;44.422;26.092;2023-03-14T03:43:46;13.40;97.50
10447;DHT22;5271;44.422;26.092;2023-03-14T03:46:12;13.40;96.90
10447;DHT22;5271;44.422;26.092;2023-03-14T03:48:39;13.40;97.20
10447;DHT22;5271;44.422;26.092;2023-03-14T03:51:12;13.40;96.80
10447;DHT22;5271;44.422;26.092;2023-03-14T03:53:39;13.40;96.60
10447;DHT22;5271;44.422;26.092;2023-03-14T03:56:07;13.40;96.40
10447;DHT22;5271;44.422;26.092;2023-03-14T03:58:34;13.40;95.80
10447;DHT22;5271;44.422;26.092;2023-03-14T04:01:01;13.40;95.50
10447;DHT22;5271;44.422;26.092;2023-03-14T04:03:27;13.50;95.40
10447;DHT22;5271;44.422;26.092;2023-03-14T04:05:58;13.50;95.70
10447;DHT22;5271;44.422;26.092;2023-03-14T04:08:27;13.50;95.40
10447;DHT22;5271;44.422;26.092;2023-03-14T04:10:55;13.50;95.50
10447;DHT22;5271;44.422;26.092;2023-03-14T04:13:23;13.50;95.50
10447;DHT22;5271;44.422;26.092;2023-03-14T04:15:50;13.50;95.50
10447;DHT22;5271;44.422;26.092;2023-03-14T04:18:17;13.50;95.40
10447;DHT22;5271;44.422;26.092;2023-03-14T04:20:44;13.50;95.20
10447;DHT22;5271;44.422;26.092;2023-03-14T04:23:11;13.40;95.20
10447;DHT22;5271;44.422;26.092;2023-03-14T04:25:39;13.40;95.40
10447;DHT22;5271;44.422;26.092;2023-03-14T04:28:06;13.40;95.60
10447;DHT22;5271;44.422;26.092;2023-03-14T04:30:33;13.40;95.70
10447;DHT22;5271;44.422;26.092;2023-03-14T04:33:00;13.40;95.90
10447;DHT22;5271;44.422;26.092;2023-03-14T04:35:27;13.40;96.00
10447;DHT22;5271;44.422;26.092;2023-03-14T04:37:54;13.40;96.60
10447;DHT22;5271;44.422;26.092;2023-03-14T04:40:21;13.30;96.80
10447;DHT22;5271;44.422;26.092;2023-03-14T04:42:49;13.30;97.10
10447;DHT22;5271;44.422;26.092;2023-03-14T04:45:16;13.30;97.40
10447;DHT22;5271;44.422;26.092;2023-03-14T04:47:43;13.20;97.40
10447;DHT22;5271;44.422;26.092;2023-03-14T04:50:10;13.20;97.60
10447;DHT22;5271;44.422;26.092;2023-03-14T04:52:37;13.20;97.80
10447;DHT22;5271;44.422;26.092;2023-03-14T04:55:05;13.20;97.50
10447;DHT22;5271;44.422;26.092;2023-03-14T04:57:32;13.20;97.40
10447;DHT22;5271;44.422;26.092;2023-03-14T05:00:00;13.20;97.40
10447;DHT22;5271;44.422;26.092;2023-03-14T05:02:31;13.10;97.10
10447;DHT22;5271;44.422;26.092;2023-03-14T05:04:58;13.10;97.30
10447;DHT22;5271;44.422;26.092;2023-03-14T05:07:25;13.10;97.20
10447;DHT22;5271;44.422;26.092;2023-03-14T05:09:52;13.10;97.30
10447;DHT22;5271;44.422;26.092;2023-03-14T05:12:19;13.00;97.50
10447;DHT22;5271;44.422;26.092;2023-03-14T05:14:46;13.00;97.70
10447;DHT22;5271;44.422;26.092;2023-03-14T05:17:15;13.10;97.80
10447;DHT22;5271;44.422;26.092;2023-03-14T05:19:42;13.10;97.70
10447;DHT22;5271;44.422;26.092;2023-03-14T05:22:09;13.10;97.60
10447;DHT22;5271;44.422;26.092;2023-03-14T05:24:36;13.10;97.50
10447;DHT22;5271;44.422;26.092;2023-03-14T05:27:04;13.10;97.40
10447;DHT22;5271;44.422;26.092;2023-03-14T05:29:30;13.10;97.10
10447;DHT22;5271;44.422;26.092;2023-03-14T05:31:57;13.10;97.00
10447;DHT22;5271;44.422;26.092;2023-03-14T05:34:25;13.10;97.10
10447;DHT22;5271;44.422;26.092;2023-03-14T05:36:52;13.10;96.80
10447;DHT22;5271;44.422;26.092;2023-03-14T05:39:21;13.10;96.90
10447;DHT22;5271;44.422;26.092;2023-03-14T05:41:47;13.10;96.70
10447;DHT22;5271;44.422;26.092;2023-03-14T05:44:15;13.10;97.00
10447;DHT22;5271;44.422;26.092;2023-03-14T05:46:42;13.00;96.80
10447;DHT22;5271;44.422;26.092;2023-03-14T05:49:09;13.10;96.90
10447;DHT22;5271;44.422;26.092;2023-03-14T05:51:37;13.00;96.90
10447;DHT22;5271;44.422;26.092;2023-03-14T05:54:04;13.00;97.20
10447;DHT22;5271;44.422;26.092;2023-03-14T05:56:31;13.00;97.20
10447;DHT22;5271;44.422;26.092;2023-03-14T05:58:58;12.90;97.30
10447;DHT22;5271;44.422;26.092;2023-03-14T06:01:27;12.90;97.40
10447;DHT22;5271;44.422;26.092;2023-03-14T06:03:54;12.90;97.10
10447;DHT22;5271;44.422;26.092;2023-03-14T06:06:21;12.90;97.30
10447;DHT22;5271;44.422;26.092;2023-03-14T06:08:49;12.90;97.20
10447;DHT22;5271;44.422;26.092;2023-03-14T06:11:16;12.90;97.10
10447;DHT22;5271;44.422;26.092;2023-03-14T06:13:43;12.90;97.30
10447;DHT22;5271;44.422;26.092;2023-03-14T06:16:10;12.90;97.20
10447;DHT22;5271;44.422;26.092;2023-03-14T06:18:37;12.90;97.10
10447;DHT22;5271;44.422;26.092;2023-03-14T06:21:04;13.00;97.30
10447;DHT22;5271;44.422;26.092;2023-03-14T06:23:31;13.00;97.20
10447;DHT22;5271;44.422;26.092;2023-03-14T06:25:59;13.10;97.00
10447;DHT22;5271;44.422;26.092;2023-03-14T06:28:26;13.10;96.90
10447;DHT22;5271;44.422;26.092;2023-03-14T06:30:53;13.10;96.90
10447;DHT22;5271;44.422;26.092;2023-03-14T06:33:20;13.10;97.30
10447;DHT22;5271;44.422;26.092;2023-03-14T06:35:47;13.10;97.40
10447;DHT22;5271;44.422;26.092;2023-03-14T06:38:15;13.10;97.60
10447;DHT22;5271;44.422;26.092;2023-03-14T06:40:42;13.10;97.50
10447;DHT22;5271;44.422;26.092;2023-03-14T06:43:10;13.10;97.70
10447;DHT22;5271;44.422;26.092;2023-03-14T06:45:37;13.10;97.80
10447;DHT22;5271;44.422;26.092;2023-03-14T06:48:04;13.10;98.00
10447;DHT22;5271;44.422;26.092;2023-03-14T06:50:31;13.10;98.60
10447;DHT22;5271;44.422;26.092;2023-03-14T06:52:58;13.10;98.40
10447;DHT22;5271;44.422;26.092;2023-03-14T06:55:25;13.00;98.30
10447;DHT22;5271;44.422;26.092;2023-03-14T06:57:52;13.00;98.30
10447;DHT22;5271;44.422;26.092;2023-03-14T07:00:21;13.10;98.50
10447;DHT22;5271;44.422;26.092;2023-03-14T07:02:48;13.10;98.70
10447;DHT22;5271;44.422;26.092;2023-03-14T07:05:15;13.10;98.90
10447;DHT22;5271;44.422;26.092;2023-03-14T07:07:42;13.00;99.00
10447;DHT22;5271;44.422;26.092;2023-03-14T07:10:10;13.00;99.20
10447;DHT22;5271;44.422;26.092;2023-03-14T07:12:37;13.00;99.20
10447;DHT22;5271;44.422;26.092;2023-03-14T07:15:04;13.00;99.30
10447;DHT22;5271;44.422;26.092;2023-03-14T07:17:32;13.00;99.40
10447;DHT22;5271;44.422;26.092;2023-03-14T07:19:59;13.00;99.80
10447;DHT22;5271;44.422;26.092;2023-03-14T07:22:26;13.00;99.60
10447;DHT22;5271;44.422;26.092;2023-03-14T07:24:53;13.00;99.60
10447;DHT22;5271;44.422;26.092;2023-03-14T07:27:20;13.00;99.80
10447;DHT22;5271;44.422;26.092;2023-03-14T07:29:46;13.00;99.60
10447;DHT22;5271;44.422;26.092;2023-03-14T07:32:13;13.00;99.70
10447;DHT22;5271;44.422;26.092;2023-03-14T07:34:42;12.90;99.80
10447;DHT22;5271;44.422;26.092;2023-03-14T07:37:09;13.00;99.90
10447;DHT22;5271;44.422;26.092;2023-03-14T07:39:36;13.00;99.90
10447;DHT22;5271;44.422;26.092;2023-03-14T07:42:03;13.10;99.90
10447;DHT22;5271;44.422;26.092;2023-03-14T07:44:30;13.20;99.90
10447;DHT22;5271;44.422;26.092;2023-03-14T07:46:57;13.10;99.90
10447;DHT22;5271;44.422;26.092;2023-03-14T07:49:24;13.10;99.90
10447;DHT22;5271;44.422;26.092;2023-03-14T07:51:52;13.10;99.90
10447;DHT22;5271;44.422;26.092;2023-03-14T07:54:19;13.20;99.90
10447;DHT22;5271;44.422;26.092;2023-03-14T07:56:46;13.20;99.90
10447;DHT22;5271;44.422;26.092;2023-03-14T07:59:12;13.20;99.90
10447;DHT22;5271;44.422;26.092;2023-03-14T08:01:39;13.30;99.90
10447;DHT22;5271;44.422;26.092;2023-03-14T08:04:06;13.30;99.90
10447;DHT22;5271;44.422;26.092;2023-03-14T08:06:34;13.30;99.90
10447;DHT22;5271;44.422;26.092;2023-03-14T08:09:03;13.30;99.90
10447;DHT22;5271;44.422;26.092;2023-03-14T08:11:30;13.30;99.90
10447;DHT22;5271;44.422;26.092;2023-03-14T08:13:57;13.30;99.90
10447;DHT22;5271;44.422;26.092;2023-03-14T08:16:24;13.30;99.90
10447;DHT22;5271;44.422;26.092;2023-03-14T08:18:51;13.20;99.90
10447;DHT22;5271;44.422;26.092;2023-03-14T08:21:17;13.20;99.90
10447;DHT22;5271;44.422;26.092;2023-03-14T08:23:44;13.20;99.90
10447;DHT22;5271;44.422;26.092;2023-03-14T08:26:13;13.30;99.80
10447;DHT22;5271;44.422;26.092;2023-03-14T08:28:39;13.30;99.90
10447;DHT22;5271;44.422;26.092;2023-03-14T08:31:06;13.30;99.10
10447;DHT22;5271;44.422;26.092;2023-03-14T08:33:33;13.30;99.30
10447;DHT22;5271;44.422;26.092;2023-03-14T08:36:00;13.30;98.90
10447;DHT22;5271;44.422;26.092;2023-03-14T08:38:27;13.30;98.60
10447;DHT22;5271;44.422;26.092;2023-03-14T08:40:58;13.30;98.90
10447;DHT22;5271;44.422;26.092;2023-03-14T08:43:26;13.30;98.80
10447;DHT22;5271;44.422;26.092;2023-03-14T08:45:53;13.10;98.50
10447;DHT22;5271;44.422;26.092;2023-03-14T08:48:20;13.00;98.60
10447;DHT22;5271;44.422;26.092;2023-03-14T08:50:47;13.00;98.80
10447;DHT22;5271;44.422;26.092;2023-03-14T08:53:14;12.90;98.30
10447;DHT22;5271;44.422;26.092;2023-03-14T08:55:41;13.00;98.70
10447;DHT22;5271;44.422;26.092;2023-03-14T08:58:07;13.00;98.60
10447;DHT22;5271;44.422;26.092;2023-03-14T09:00:36;13.00;98.10
10447;DHT22;5271;44.422;26.092;2023-03-14T09:03:03;13.10;98.00
10447;DHT22;5271;44.422;26.092;2023-03-14T09:05:32;13.10;97.80
10447;DHT22;5271;44.422;26.092;2023-03-14T09:07:59;13.10;98.00
10447;DHT22;5271;44.422;26.092;2023-03-14T09:10:26;13.10;97.80
10447;DHT22;5271;44.422;26.092;2023-03-14T09:12:53;13.20;97.40
10447;DHT22;5271;44.422;26.092;2023-03-14T09:15:20;13.20;97.00
10447;DHT22;5271;44.422;26.092;2023-03-14T09:17:48;13.20;96.60
10447;DHT22;5271;44.422;26.092;2023-03-14T09:20:16;13.30;96.20
10447;DHT22;5271;44.422;26.092;2023-03-14T09:22:43;13.30;95.80
10447;DHT22;5271;44.422;26.092;2023-03-14T09:25:10;13.20;95.20
10447;DHT22;5271;44.422;26.092;2023-03-14T09:27:37;13.20;95.10
10447;DHT22;5271;44.422;26.092;2023-03-14T09:30:04;13.10;95.10
10447;DHT22;5271;44.422;26.092;2023-03-14T09:32:31;13.10;96.00
10447;DHT22;5271;44.422;26.092;2023-03-14T09:35:00;12.70;97.10
10447;DHT22;5271;44.422;26.092;2023-03-14T09:37:27;12.40;97.90
10447;DHT22;5271;44.422;26.092;2023-03-14T09:39:53;12.20;97.90
10447;DHT22;5271;44.422;26.092;2023-03-14T09:42:23;11.90;98.20
10447;DHT22;5271;44.422;26.092;2023-03-14T09:44:55;11.70;98.60
10447;DHT22;5271;44.422;26.092;2023-03-14T09:47:23;11.60;98.80
10447;DHT22;5271;44.422;26.092;2023-03-14T09:49:51;11.50;98.90
10447;DHT22;5271;44.422;26.092;2023-03-14T09:52:22;11.40;98.50
10447;DHT22;5271;44.422;26.092;2023-03-14T09:54:52;11.40;98.90
10447;DHT22;5271;44.422;26.092;2023-03-14T09:57:21;11.40;98.60
10447;DHT22;5271;44.422;26.092;2023-03-14T09:59:50;11.40;98.80
10447;DHT22;5271;44.422;26.092;2023-03-14T10:02:19;11.50;98.80
10447;DHT22;5271;44.422;26.092;2023-03-14T10:04:49;11.60;98.40
10447;DHT22;5271;44.422;26.092;2023-03-14T10:07:17;11.70;98.50
10447;DHT22;5271;44.422;26.092;2023-03-14T10:09:50;11.90;98.00
10447;DHT22;5271;44.422;26.092;2023-03-14T10:12:18;12.00;97.70
10447;DHT22;5271;44.422;26.092;2023-03-14T10:14:47;12.00;97.60
10447;DHT22;5271;44.422;26.092;2023-03-14T10:17:15;12.10;97.00
10447;DHT22;5271;44.422;26.092;2023-03-14T10:19:55;12.10;97.20
10447;DHT22;5271;44.422;26.092;2023-03-14T10:22:25;12.20;96.90
10447;DHT22;5271;44.422;26.092;2023-03-14T10:24:56;12.20;97.10
10447;DHT22;5271;44.422;26.092;2023-03-14T10:27:28;12.30;97.10
10447;DHT22;5271;44.422;26.092;2023-03-14T10:29:57;12.30;96.60
10447;DHT22;5271;44.422;26.092;2023-03-14T10:32:31;12.40;97.10
10447;DHT22;5271;44.422;26.092;2023-03-14T10:35:08;12.40;96.70
10447;DHT22;5271;44.422;26.092;2023-03-14T10:37:50;12.50;96.40
10447;DHT22;5271;44.422;26.092;2023-03-14T10:40:24;12.60;96.80
10447;DHT22;5271;44.422;26.092;2023-03-14T10:42:51;12.70;96.40
10447;DHT22;5271;44.422;26.092;2023-03-14T10:45:33;12.60;96.40
10447;DHT22;5271;44.422;26.092;2023-03-14T10:48:19;12.70;96.10
10447;DHT22;5271;44.422;26.092;2023-03-14T10:50:54;12.70;95.80
10447;DHT22;5271;44.422;26.092;2023-03-14T10:53:22;12.80;95.70
10447;DHT22;5271;44.422;26.092;2023-03-14T10:55:50;12.90;96.00
10447;DHT22;5271;44.422;26.092;2023-03-14T10:58:19;13.00;95.90
10447;DHT22;5271;44.422;26.092;2023-03-14T11:00:51;13.20;95.40
10447;DHT22;5271;44.422;26.092;2023-03-14T11:03:18;13.40;95.30
10447;DHT22;5271;44.422;26.092;2023-03-14T11:05:51;13.50;95.40
10447;DHT22;5271;44.422;26.092;2023-03-14T11:08:25;13.80;95.00
10447;DHT22;5271;44.422;26.092;2023-03-14T11:10:57;14.00;94.70
10447;DHT22;5271;44.422;26.092;2023-03-14T11:13:34;14.30;94.80
10447;DHT22;5271;44.422;26.092;2023-03-14T11:16:07;14.50;94.80
10447;DHT22;5271;44.422;26.092;2023-03-14T11:19:03;14.70;94.40
10447;DHT22;5271;44.422;26.092;2023-03-14T11:21:39;14.60;93.70
10447;DHT22;5271;44.422;26.092;2023-03-14T11:27:09;14.20;94.90
10447;DHT22;5271;44.422;26.092;2023-03-14T11:29:41;14.00;95.70
10447;DHT22;5271;44.422;26.092;2023-03-14T11:32:13;14.00;95.30
10447;DHT22;5271;44.422;26.092;2023-03-14T11:34:50;14.20;95.60
10447;DHT22;5271;44.422;26.092;2023-03-14T11:37:22;14.30;95.70
10447;DHT22;5271;44.422;26.092;2023-03-14T11:39:56;14.40;96.10
10447;DHT22;5271;44.422;26.092;2023-03-14T11:42:26;14.50;95.90
10447;DHT22;5271;44.422;26.092;2023-03-14T11:44:55;14.60;95.60
10447;DHT22;5271;44.422;26.092;2023-03-14T11:47:24;14.80;95.60
10447;DHT22;5271;44.422;26.092;2023-03-14T11:49:58;14.90;94.90
10447;DHT22;5271;44.422;26.092;2023-03-14T11:52:31;15.10;95.00
10447;DHT22;5271;44.422;26.092;2023-03-14T11:55:04;15.20;94.70
10447;DHT22;5271;44.422;26.092;2023-03-14T11:57:33;15.20;94.10
10447;DHT22;5271;44.422;26.092;2023-03-14T12:00:05;15.10;94.00
10447;DHT22;5271;44.422;26.092;2023-03-14T12:02:43;15.20;93.40
10447;DHT22;5271;44.422;26.092;2023-03-14T12:05:31;15.30;92.70
10447;DHT22;5271;44.422;26.092;2023-03-14T12:08:29;15.10;92.60
10447;DHT22;5271;44.422;26.092;2023-03-14T12:11:00;15.00;93.00
10447;DHT22;5271;44.422;26.092;2023-03-14T12:13:33;14.90;94.00
10447;DHT22;5271;44.422;26.092;2023-03-14T12:16:05;14.90;93.80
10447;DHT22;5271;44.422;26.092;2023-03-14T12:18:34;15.00;93.70
10447;DHT22;5271;44.422;26.092;2023-03-14T12:21:06;15.00;93.50
10447;DHT22;5271;44.422;26.092;2023-03-14T12:23:40;15.00;94.20
10447;DHT22;5271;44.422;26.092;2023-03-14T12:26:19;14.80;93.60
10447;DHT22;5271;44.422;26.092;2023-03-14T12:28:51;14.70;94.10
10447;DHT22;5271;44.422;26.092;2023-03-14T12:31:42;14.70;93.10
10447;DHT22;5271;44.422;26.092;2023-03-14T12:34:27;14.80;93.10
10447;DHT22;5271;44.422;26.092;2023-03-14T12:37:02;14.80;92.90
10447;DHT22;5271;44.422;26.092;2023-03-14T12:39:37;14.80;93.10
10447;DHT22;5271;44.422;26.092;2023-03-14T12:42:07;14.80;93.40
10447;DHT22;5271;44.422;26.092;2023-03-14T12:44:44;14.80;93.50
10447;DHT22;5271;44.422;26.092;2023-03-14T12:50:19;14.90;92.60
10447;DHT22;5271;44.422;26.092;2023-03-14T12:52:56;14.90;93.00
10447;DHT22;5271;44.422;26.092;2023-03-14T12:55:31;14.80;93.00
10447;DHT22;5271;44.422;26.092;2023-03-14T12:58:07;14.80;93.20
10447;DHT22;5271;44.422;26.092;2023-03-14T13:00:39;14.70;92.30
10447;DHT22;5271;44.422;26.092;2023-03-14T13:03:17;14.80;92.70
10447;DHT22;5271;44.422;26.092;2023-03-14T13:05:51;14.80;91.70
10447;DHT22;5271;44.422;26.092;2023-03-14T13:08:34;14.80;91.80
10447;DHT22;5271;44.422;26.092;2023-03-14T13:11:02;14.70;92.50
10447;DHT22;5271;44.422;26.092;2023-03-14T13:13:30;14.60;92.70
10447;DHT22;5271;44.422;26.092;2023-03-14T13:16:02;14.50;93.50
10447;DHT22;5271;44.422;26.092;2023-03-14T13:18:35;14.10;92.90
10447;DHT22;5271;44.422;26.092;2023-03-14T13:21:05;13.50;92.30
10447;DHT22;5271;44.422;26.092;2023-03-14T13:23:34;13.10;93.00
10447;DHT22;5271;44.422;26.092;2023-03-14T13:26:02;12.90;93.60
10447;DHT22;5271;44.422;26.092;2023-03-14T13:28:30;12.80;94.20
10447;DHT22;5271;44.422;26.092;2023-03-14T13:31:00;12.90;94.60
10447;DHT22;5271;44.422;26.092;2023-03-14T13:33:28;13.00;94.60
10447;DHT22;5271;44.422;26.092;2023-03-14T13:35:57;13.10;94.00
10447;DHT22;5271;44.422;26.092;2023-03-14T13:38:25;13.20;93.60
10447;DHT22;5271;44.422;26.092;2023-03-14T13:40:55;13.40;93.70
10447;DHT22;5271;44.422;26.092;2023-03-14T13:43:28;13.50;93.30
10447;DHT22;5271;44.422;26.092;2023-03-14T13:46:02;13.70;93.50
10447;DHT22;5271;44.422;26.092;2023-03-14T13:48:33;13.80;92.80
10447;DHT22;5271;44.422;26.092;2023-03-14T13:51:04;13.80;92.10
10447;DHT22;5271;44.422;26.092;2023-03-14T13:53:32;13.90;92.00
10447;DHT22;5271;44.422;26.092;2023-03-14T13:56:02;13.90;92.10
10447;DHT22;5271;44.422;26.092;2023-03-14T13:58:31;13.90;92.60
10447;DHT22;5271;44.422;26.092;2023-03-14T14:01:11;13.90;90.20
10447;DHT22;5271;44.422;26.092;2023-03-14T14:03:42;13.90;90.40
10447;DHT22;5271;44.422;26.092;2023-03-14T14:06:21;13.90;88.30
10447;DHT22;5271;44.422;26.092;2023-03-14T14:08:48;13.90;87.40
10447;DHT22;5271;44.422;26.092;2023-03-14T14:11:27;14.00;87.40
10447;DHT22;5271;44.422;26.092;2023-03-14T14:13:58;14.00;84.00
10447;DHT22;5271;44.422;26.092;2023-03-14T14:16:27;14.10;84.50
10447;DHT22;5271;44.422;26.092;2023-03-14T14:18:57;14.10;81.20
10447;DHT22;5271;44.422;26.092;2023-03-14T14:21:25;14.00;82.80
10447;DHT22;5271;44.422;26.092;2023-03-14T14:23:53;14.00;83.00
10447;DHT22;5271;44.422;26.092;2023-03-14T14:26:20;14.00;82.80
10447;DHT22;5271;44.422;26.092;2023-03-14T14:28:47;14.00;83.10
10447;DHT22;5271;44.422;26.092;2023-03-14T14:31:24;14.10;83.00
10447;DHT22;5271;44.422;26.092;2023-03-14T14:33:56;14.20;81.40
10447;DHT22;5271;44.422;26.092;2023-03-14T14:36:27;14.20;80.90
10447;DHT22;5271;44.422;26.092;2023-03-14T14:38:59;14.20;80.90
10447;DHT22;5271;44.422;26.092;2023-03-14T14:41:31;14.20;81.10
10447;DHT22;5271;44.422;26.092;2023-03-14T14:43:59;14.20;79.30
10447;DHT22;5271;44.422;26.092;2023-03-14T14:46:28;14.20;81.30
10447;DHT22;5271;44.422;26.092;2023-03-14T14:49:01;14.30;80.30
10447;DHT22;5271;44.422;26.092;2023-03-14T14:51:33;14.40;80.00
10447;DHT22;5271;44.422;26.092;2023-03-14T14:54:12;14.40;79.50
10447;DHT22;5271;44.422;26.092;2023-03-14T14:56:39;14.30;78.50
10447;DHT22;5271;44.422;26.092;2023-03-14T14:59:18;14.30;78.00
10447;DHT22;5271;44.422;26.092;2023-03-14T15:01:46;14.20;77.30
10447;DHT22;5271;44.422;26.092;2023-03-14T15:04:17;14.20;75.80
10447;DHT22;5271;44.422;26.092;2023-03-14T15:06:45;14.20;75.40
10447;DHT22;5271;44.422;26.092;2023-03-14T15:09:13;14.20;75.80
10447;DHT22;5271;44.422;26.092;2023-03-14T15:11:42;14.20;75.30
10447;DHT22;5271;44.422;26.092;2023-03-14T15:14:09;14.20;73.60
10447;DHT22;5271;44.422;26.092;2023-03-14T15:16:36;14.20;73.50
10447;DHT22;5271;44.422;26.092;2023-03-14T15:19:08;14.30;73.10
10447;DHT22;5271;44.422;26.092;2023-03-14T15:21:37;14.30;73.80
10447;DHT22;5271;44.422;26.092;2023-03-14T15:24:04;14.30;73.90
10447;DHT22;5271;44.422;26.092;2023-03-14T15:26:31;14.30;74.60
10447;DHT22;5271;44.422;26.092;2023-03-14T15:28:58;14.30;75.60
10447;DHT22;5271;44.422;26.092;2023-03-14T15:31:25;14.20;77.10
10447;DHT22;5271;44.422;26.092;2023-03-14T15:33:52;14.20;78.20
10447;DHT22;5271;44.422;26.092;2023-03-14T15:36:22;14.30;78.80
10447;DHT22;5271;44.422;26.092;2023-03-14T15:38:52;14.30;79.00
10447;DHT22;5271;44.422;26.092;2023-03-14T15:41:20;14.30;79.00
10447;DHT22;5271;44.422;26.092;2023-03-14T15:43:47;14.30;79.30
10447;DHT22;5271;44.422;26.092;2023-03-14T15:46:14;14.30;79.00
10447;DHT22;5271;44.422;26.092;2023-03-14T15:48:43;14.30;78.50
10447;DHT22;5271;44.422;26.092;2023-03-14T15:51:10;14.20;78.80
10447;DHT22;5271;44.422;26.092;2023-03-14T15:53:37;14.20;79.70